createdAt,value
2018-05-04T00:01:46.518Z,4.23
2018-05-04T00:04:15.050Z,4.40
2018-05-04T00:06:43.426Z,4.63
2018-05-04T00:09:11.697Z,4.40
2018-05-04T00:11:40.728Z,4.67
2018-05-04T00:14:09.011Z,4.57
2018-05-04T00:16:37.254Z,5.27
2018-05-04T00:19:05.525Z,5.07
2018-05-04T00:21:33.766Z,5.57
2018-05-04T00:24:02.061Z,5.70
2018-05-04T00:26:30.388Z,6.10
2018-05-04T00:28:58.645Z,6.20
2018-05-04T00:31:26.901Z,5.73
2018-05-04T00:33:55.929Z,5.80
2018-05-04T00:36:24.216Z,6.37
2018-05-04T00:38:52.467Z,6.07
2018-05-04T00:41:20.735Z,6.33
2018-05-04T00:43:48.991Z,6.53
2018-05-04T00:46:18.012Z,6.43
2018-05-04T00:48:46.285Z,6.03
2018-05-04T00:51:14.541Z,6.70
2018-05-04T00:53:55.289Z,6.60
2018-05-04T00:56:23.527Z,6.37
2018-05-04T00:58:51.807Z,7.20
2018-05-04T01:01:20.065Z,7.40
2018-05-04T01:03:48.315Z,6.20
2018-05-04T01:06:17.375Z,6.80
2018-05-04T01:08:45.610Z,6.47
2018-05-04T01:11:13.899Z,6.80
2018-05-04T01:13:42.168Z,6.33
2018-05-04T01:16:10.401Z,6.10
2018-05-04T01:18:39.434Z,5.13
2018-05-04T01:21:07.694Z,5.53
2018-05-04T01:23:36.096Z,5.40
2018-05-04T01:26:04.311Z,5.63
2018-05-04T01:28:32.576Z,5.80
2018-05-04T01:31:00.816Z,5.50
2018-05-04T01:33:29.085Z,5.80
2018-05-04T01:35:57.324Z,5.63
2018-05-04T01:38:26.351Z,6.00
2018-05-04T01:40:54.598Z,6.17
2018-05-04T01:43:23.642Z,6.40
2018-05-04T01:45:51.882Z,6.90
2018-05-04T01:48:20.174Z,6.70
2018-05-04T01:50:48.436Z,6.67
2018-05-04T01:53:16.685Z,6.37
2018-05-04T01:55:45.090Z,6.80
2018-05-04T01:58:14.106Z,6.53
2018-05-04T02:00:42.379Z,7.30
2018-05-04T02:03:10.619Z,7.00
2018-05-04T02:05:39.643Z,6.40
2018-05-04T02:08:07.890Z,7.37
2018-05-04T02:10:36.905Z,7.37
2018-05-04T02:13:05.205Z,7.13
2018-05-04T02:15:33.464Z,7.50
2018-05-04T02:18:01.710Z,6.90
2018-05-04T02:20:30.743Z,7.97
2018-05-04T02:22:59.021Z,7.20
2018-05-04T02:25:27.269Z,7.70
2018-05-04T02:27:56.314Z,7.90
2018-05-04T02:30:24.559Z,7.70
2018-05-04T02:32:52.811Z,7.37
2018-05-04T02:35:21.830Z,7.77
2018-05-04T02:37:50.084Z,8.00
2018-05-04T02:40:18.355Z,7.47
2018-05-04T02:42:47.359Z,7.80
2018-05-04T02:45:15.665Z,8.50
2018-05-04T02:47:43.946Z,7.63
2018-05-04T02:50:12.200Z,8.10
2018-05-04T02:52:40.457Z,7.30
2018-05-04T02:55:09.491Z,7.53
2018-05-04T02:57:37.770Z,7.67
2018-05-04T03:00:06.013Z,8.30
2018-05-04T03:02:34.300Z,8.03
2018-05-04T03:05:02.564Z,8.47
2018-05-04T03:07:30.841Z,7.50
2018-05-04T03:09:59.094Z,7.50
2018-05-04T03:12:28.127Z,7.73
2018-05-04T03:14:57.231Z,8.57
2018-05-04T03:17:25.492Z,7.53
2018-05-04T03:19:53.755Z,8.03
2018-05-04T03:22:22.839Z,8.17
2018-05-04T03:24:51.864Z,7.97
2018-05-04T03:27:20.126Z,8.27
2018-05-04T03:29:49.163Z,8.20
2018-05-04T03:32:18.164Z,8.50
2018-05-04T03:34:46.405Z,8.00
2018-05-04T03:37:14.667Z,9.17
2018-05-04T03:39:42.929Z,8.47
2018-05-04T03:42:11.954Z,9.57
2018-05-04T03:44:40.202Z,8.27
2018-05-04T03:47:08.476Z,7.87
2018-05-04T03:49:36.734Z,7.53
2018-05-04T03:52:05.031Z,8.13
2018-05-04T03:54:33.244Z,8.00
2018-05-04T03:57:13.572Z,8.03
2018-05-04T03:59:53.854Z,8.30
2018-05-04T04:02:34.056Z,8.17
2018-05-04T04:05:02.186Z,7.40
2018-05-04T04:07:30.434Z,8.50
2018-05-04T04:09:58.706Z,9.23
2018-05-04T04:12:26.962Z,8.27
2018-05-04T04:14:55.996Z,7.73
2018-05-04T04:17:24.299Z,8.17
2018-05-04T04:19:52.559Z,8.03
2018-05-04T04:22:20.805Z,7.83
2018-05-04T04:24:49.062Z,7.73
2018-05-04T04:27:17.343Z,8.90
2018-05-04T04:29:46.391Z,8.00
2018-05-04T04:32:15.160Z,8.27
2018-05-04T04:34:43.535Z,8.10
2018-05-04T04:37:11.789Z,8.13
2018-05-04T04:39:40.031Z,8.43
2018-05-04T04:42:08.293Z,7.63
2018-05-04T04:44:36.606Z,7.20
2018-05-04T04:47:04.856Z,7.33
2018-05-04T04:49:33.118Z,8.10
2018-05-04T04:52:01.370Z,7.83
2018-05-04T04:54:29.641Z,8.13
2018-05-04T04:56:57.912Z,8.60
2018-05-04T04:59:26.186Z,7.90
2018-05-04T05:01:54.490Z,8.63
2018-05-04T05:04:22.710Z,8.30
2018-05-04T05:06:50.971Z,9.03
2018-05-04T05:09:19.252Z,8.33
2018-05-04T05:11:47.486Z,7.20
2018-05-04T05:14:15.754Z,6.77
2018-05-04T05:16:44.001Z,6.90
2018-05-04T05:19:12.261Z,7.50
2018-05-04T05:21:40.563Z,7.10
2018-05-04T05:24:08.835Z,7.87
2018-05-04T05:26:37.098Z,7.17
2018-05-04T05:29:06.125Z,7.33
2018-05-04T05:31:34.392Z,7.00
2018-05-04T05:34:02.646Z,7.00
2018-05-04T05:36:31.698Z,6.93
2018-05-04T05:38:59.930Z,8.07
2018-05-04T05:41:28.185Z,8.23
2018-05-04T05:43:57.196Z,7.13
2018-05-04T05:46:25.489Z,7.17
2018-05-04T05:48:53.949Z,6.37
2018-05-04T05:51:22.972Z,6.63
2018-05-04T05:53:51.250Z,6.80
2018-05-04T05:56:19.553Z,6.27
2018-05-04T05:58:47.827Z,6.37
2018-05-04T06:01:16.088Z,7.17
2018-05-04T06:03:44.420Z,6.47
2018-05-04T06:06:13.445Z,6.00
2018-05-04T06:08:41.695Z,6.47
2018-05-04T06:11:10.709Z,6.73
2018-05-04T06:13:38.978Z,6.77
2018-05-04T06:16:07.246Z,6.40
2018-05-04T06:18:35.518Z,7.33
2018-05-04T06:21:03.807Z,6.40
2018-05-04T06:23:32.799Z,6.33
2018-05-04T06:26:01.071Z,6.40
2018-05-04T06:28:29.349Z,6.90
2018-05-04T06:30:57.614Z,6.20
2018-05-04T06:33:25.887Z,5.90
2018-05-04T06:35:54.292Z,6.20
2018-05-04T06:38:22.551Z,6.10
2018-05-04T06:40:50.799Z,5.07
2018-05-04T06:43:19.342Z,5.00
2018-05-04T06:45:47.605Z,4.70
2018-05-04T06:48:15.859Z,5.20
2018-05-04T06:50:44.107Z,5.10
2018-05-04T06:53:12.480Z,5.40
2018-05-04T06:55:41.414Z,4.73
2018-05-04T06:58:09.709Z,4.80
2018-05-04T07:00:37.955Z,4.23
2018-05-04T07:03:07.018Z,4.47
2018-05-04T07:05:35.322Z,4.60
2018-05-04T07:08:03.595Z,4.30
2018-05-04T07:10:32.707Z,4.40
2018-05-04T07:13:01.124Z,4.33
2018-05-04T07:15:29.381Z,4.30
2018-05-04T07:17:57.628Z,4.33
2018-05-04T07:20:26.776Z,3.63
2018-05-04T07:22:55.068Z,4.17
2018-05-04T07:25:23.379Z,4.20
2018-05-04T07:27:52.382Z,3.83
2018-05-04T07:30:20.654Z,4.70
2018-05-04T07:32:48.967Z,4.07
2018-05-04T07:35:17.253Z,4.23
2018-05-04T07:37:45.512Z,4.20
2018-05-04T07:40:13.771Z,4.47
2018-05-04T07:42:42.035Z,4.93
2018-05-04T07:45:10.330Z,4.67
2018-05-04T07:47:38.613Z,4.63
2018-05-04T07:50:06.887Z,4.73
2018-05-04T07:52:35.147Z,5.20
2018-05-04T07:55:03.454Z,5.07
2018-05-04T07:57:31.831Z,4.90
2018-05-04T08:00:00.097Z,4.60
2018-05-04T08:02:28.373Z,4.83
2018-05-04T08:04:56.715Z,5.53
2018-05-04T08:07:25.755Z,4.90
2018-05-04T08:09:54.033Z,4.93
2018-05-04T08:12:23.124Z,5.13
2018-05-04T08:14:51.403Z,4.60
2018-05-04T08:17:19.656Z,4.67
2018-05-04T08:19:47.913Z,4.37
2018-05-04T08:22:16.173Z,4.67
2018-05-04T08:24:45.199Z,4.80
2018-05-04T08:27:13.457Z,5.03
2018-05-04T08:29:41.734Z,4.93
2018-05-04T08:32:10.796Z,5.23
2018-05-04T08:34:39.130Z,5.17
2018-05-04T08:37:07.370Z,4.60
2018-05-04T08:39:35.614Z,5.47
2018-05-04T08:42:03.911Z,5.80
2018-05-04T08:44:32.167Z,5.83
2018-05-04T08:47:00.419Z,5.83
2018-05-04T08:49:28.687Z,5.03
2018-05-04T08:51:56.953Z,5.33
2018-05-04T08:54:25.296Z,5.43
2018-05-04T08:56:53.511Z,4.70
2018-05-04T08:59:21.782Z,4.80
2018-05-04T09:01:50.035Z,6.00
2018-05-04T09:04:19.222Z,6.60
2018-05-04T09:06:47.579Z,5.90
2018-05-04T09:09:15.754Z,6.40
2018-05-04T09:11:44.027Z,6.20
2018-05-04T09:14:12.289Z,6.40
2018-05-04T09:16:40.542Z,5.83
2018-05-04T09:19:08.914Z,5.90
2018-05-04T09:21:37.207Z,5.67
2018-05-04T09:24:05.586Z,6.17
2018-05-04T09:26:33.854Z,6.13
2018-05-04T09:29:02.152Z,5.97
2018-05-04T09:31:30.452Z,6.10
2018-05-04T09:33:58.842Z,5.63
2018-05-04T09:36:27.119Z,6.10
2018-05-04T09:38:55.356Z,5.77
2018-05-04T09:41:23.789Z,6.47
2018-05-04T09:43:52.227Z,6.53
2018-05-04T09:46:20.369Z,6.40
2018-05-04T09:48:48.659Z,6.90
2018-05-04T09:51:16.919Z,6.87
2018-05-04T09:53:45.218Z,22.20
2018-05-04T09:56:13.546Z,8.10
2018-05-04T09:58:41.768Z,7.47
2018-05-04T10:01:10.046Z,7.67
2018-05-04T10:03:38.354Z,7.53
2018-05-04T10:06:06.606Z,8.00
2018-05-04T10:08:34.936Z,7.73
2018-05-04T10:11:03.954Z,7.60
2018-05-04T10:13:32.223Z,10.10
2018-05-04T10:16:00.564Z,10.00
2018-05-04T10:18:28.779Z,8.27
2018-05-04T10:20:57.042Z,7.07
2018-05-04T10:23:25.338Z,7.57
2018-05-04T10:25:53.571Z,8.17
2018-05-04T10:28:22.662Z,8.07
2018-05-04T10:30:51.757Z,8.53
2018-05-04T10:33:19.977Z,8.03
2018-05-04T10:35:48.228Z,8.10
2018-05-04T10:38:16.605Z,8.03
2018-05-04T10:40:44.854Z,7.70
2018-05-04T10:43:13.098Z,8.00
2018-05-04T10:45:41.400Z,8.03
2018-05-04T10:48:09.730Z,7.53
2018-05-04T10:50:38.027Z,8.87
2018-05-04T10:53:06.304Z,7.57
2018-05-04T10:55:34.555Z,8.33
2018-05-04T10:58:02.914Z,7.80
2018-05-04T11:00:31.178Z,8.67
2018-05-04T11:03:00.348Z,8.23
2018-05-04T11:05:28.613Z,8.10
2018-05-04T11:07:56.858Z,7.57
2018-05-04T11:10:25.123Z,7.63
2018-05-04T11:12:53.378Z,8.23
2018-05-04T11:15:22.413Z,7.80
2018-05-04T11:17:50.695Z,7.43
2018-05-04T11:20:18.944Z,6.80
2018-05-04T11:22:47.235Z,7.40
2018-05-04T11:25:15.498Z,7.17
2018-05-04T11:27:43.787Z,6.77
2018-05-04T11:30:12.091Z,7.60
2018-05-04T11:32:40.417Z,6.53
2018-05-04T11:35:09.434Z,8.50
2018-05-04T11:37:37.747Z,8.43
2018-05-04T11:40:06.029Z,8.10
2018-05-04T11:42:34.294Z,8.07
2018-05-04T11:45:02.592Z,8.30
2018-05-04T11:47:30.846Z,7.40
2018-05-04T11:49:59.123Z,7.40
2018-05-04T11:52:27.379Z,7.00
2018-05-04T11:54:55.646Z,6.73
2018-05-04T11:57:23.907Z,8.10
2018-05-04T11:59:52.172Z,7.73
2018-05-04T12:02:21.280Z,7.67
2018-05-04T12:04:49.539Z,7.00
2018-05-04T12:07:17.747Z,7.40
2018-05-04T12:09:46.019Z,7.27
2018-05-04T12:12:14.307Z,7.43
2018-05-04T12:14:42.580Z,8.50
2018-05-04T12:17:10.938Z,7.47
2018-05-04T12:19:39.965Z,7.87
2018-05-04T12:22:08.236Z,7.40
2018-05-04T12:24:36.509Z,7.67
2018-05-04T12:27:04.798Z,7.47
2018-05-04T12:29:33.119Z,6.80
2018-05-04T12:32:01.376Z,7.50
2018-05-04T12:34:29.639Z,7.00
2018-05-04T12:36:57.959Z,7.70
2018-05-04T12:39:26.215Z,7.10
2018-05-04T12:41:54.494Z,8.27
2018-05-04T12:44:22.752Z,7.40
2018-05-04T12:46:51.027Z,6.60
2018-05-04T12:49:19.307Z,7.00
2018-05-04T12:51:47.577Z,7.17
2018-05-04T12:54:15.833Z,7.43
2018-05-04T12:56:44.862Z,6.90
2018-05-04T12:59:13.139Z,6.50
2018-05-04T13:01:41.398Z,6.80
2018-05-04T13:04:09.654Z,6.80
2018-05-04T13:06:37.930Z,6.73
2018-05-04T13:09:06.427Z,7.00
2018-05-04T13:11:34.701Z,6.70
2018-05-04T13:14:02.963Z,7.73
2018-05-04T13:16:31.219Z,7.20
2018-05-04T13:18:59.496Z,7.97
2018-05-04T13:21:27.759Z,6.47
2018-05-04T13:23:56.003Z,6.67
2018-05-04T13:26:24.278Z,6.53
2018-05-04T13:28:52.533Z,7.63
2018-05-04T13:31:20.810Z,7.40
2018-05-04T13:33:49.078Z,7.00
2018-05-04T13:36:17.326Z,7.50
2018-05-04T13:38:45.670Z,7.00
2018-05-04T13:41:13.868Z,8.20
2018-05-04T13:43:42.147Z,6.90
2018-05-04T13:46:10.476Z,8.23
2018-05-04T13:48:38.703Z,10.57
2018-05-04T13:51:07.115Z,8.40
2018-05-04T13:53:35.351Z,6.80
2018-05-04T13:56:04.365Z,6.43
2018-05-04T13:58:32.626Z,6.80
2018-05-04T14:01:00.948Z,7.30
2018-05-04T14:03:29.187Z,7.77
2018-05-04T14:05:57.482Z,7.87
2018-05-04T14:08:25.750Z,8.00
2018-05-04T14:10:54.027Z,7.40
2018-05-04T14:13:22.280Z,7.83
2018-05-04T14:15:50.560Z,7.80
2018-05-04T14:18:19.602Z,6.87
2018-05-04T14:20:47.865Z,6.73
2018-05-04T14:23:16.926Z,7.57
2018-05-04T14:25:45.188Z,7.83
2018-05-04T14:28:13.471Z,7.03
2018-05-04T14:30:42.490Z,7.20
2018-05-04T14:33:10.770Z,7.10
2018-05-04T14:35:39.023Z,7.30
2018-05-04T14:38:07.291Z,6.73
2018-05-04T14:40:35.558Z,7.30
2018-05-04T14:43:04.569Z,8.50
2018-05-04T14:45:32.847Z,7.60
2018-05-04T14:48:01.108Z,6.80
2018-05-04T14:50:30.151Z,18.37
2018-05-04T14:52:58.413Z,8.50
2018-05-04T14:55:26.686Z,10.40
2018-05-04T14:57:54.952Z,6.27
2018-05-04T15:00:23.216Z,6.30
2018-05-04T15:02:51.501Z,6.70
2018-05-04T15:05:19.741Z,6.60
2018-05-04T15:07:48.011Z,7.03
2018-05-04T15:10:16.294Z,8.50
2018-05-04T15:12:44.548Z,5.83
2018-05-04T15:15:12.800Z,6.00
2018-05-04T15:17:41.056Z,6.37
2018-05-04T15:20:09.319Z,6.03
2018-05-04T15:22:37.652Z,6.00
2018-05-04T15:25:05.965Z,6.17
2018-05-04T15:27:34.184Z,5.70
2018-05-04T15:30:03.237Z,5.40
2018-05-04T15:32:32.257Z,5.57
2018-05-04T15:35:00.535Z,5.97
2018-05-04T15:37:28.783Z,6.03
2018-05-04T15:39:57.076Z,5.67
2018-05-04T15:42:26.088Z,5.93
2018-05-04T15:44:54.443Z,5.67
2018-05-04T15:47:22.729Z,5.13
2018-05-04T15:49:50.998Z,5.40
2018-05-04T15:52:19.248Z,5.40
2018-05-04T15:54:48.289Z,5.67
2018-05-04T15:57:16.590Z,5.70
2018-05-04T15:59:44.839Z,5.43
2018-05-04T16:02:13.119Z,5.50
2018-05-04T16:04:41.412Z,5.20
2018-05-04T16:07:09.654Z,5.43
2018-05-04T16:09:37.928Z,7.47
2018-05-04T16:12:06.257Z,5.90
2018-05-04T16:14:34.515Z,5.60
2018-05-04T16:17:02.776Z,6.00
2018-05-04T16:19:31.049Z,5.40
2018-05-04T16:21:59.395Z,5.53
2018-05-04T16:24:27.615Z,5.30
2018-05-04T16:26:55.893Z,5.17
2018-05-04T16:29:24.164Z,5.40
2018-05-04T16:31:52.414Z,5.17
2018-05-04T16:34:20.663Z,5.30
2018-05-04T16:36:49.694Z,5.63
2018-05-04T16:39:17.973Z,5.27
2018-05-04T16:41:46.266Z,5.30
2018-05-04T16:44:14.512Z,5.13
2018-05-04T16:46:48.378Z,5.27
2018-05-04T16:49:22.303Z,4.80
2018-05-04T16:51:51.391Z,5.33
2018-05-04T16:54:19.643Z,4.80
2018-05-04T16:56:47.950Z,4.53
2018-05-04T16:59:16.965Z,4.63
2018-05-04T17:01:45.233Z,3.63
2018-05-04T17:04:14.371Z,4.20
2018-05-04T17:06:42.624Z,4.50
2018-05-04T17:09:10.963Z,4.10
2018-05-04T17:11:39.161Z,3.47
2018-05-04T17:14:07.425Z,3.40
2018-05-04T17:16:36.439Z,3.27
2018-05-04T17:19:04.727Z,3.33
2018-05-04T17:21:32.991Z,2.93
2018-05-04T17:24:01.284Z,3.27
2018-05-04T17:26:29.541Z,3.20
2018-05-04T17:28:57.869Z,3.20
2018-05-04T17:31:26.119Z,3.13
2018-05-04T17:33:54.361Z,3.07
2018-05-04T17:36:22.634Z,2.50
2018-05-04T17:38:51.668Z,3.27
2018-05-04T17:41:20.035Z,3.50
2018-05-04T17:43:48.292Z,3.30
2018-05-04T17:46:16.554Z,3.17
2018-05-04T17:48:45.514Z,3.17
2018-05-04T17:51:14.581Z,2.93
2018-05-04T17:53:43.584Z,3.30
2018-05-04T17:56:13.367Z,3.43
2018-05-04T17:58:42.411Z,3.30
2018-05-04T18:01:11.512Z,3.27
2018-05-04T18:03:39.810Z,2.97
2018-05-04T18:06:08.039Z,3.40
2018-05-04T18:08:36.324Z,5.63
2018-05-04T18:11:04.582Z,3.87
2018-05-04T18:13:32.844Z,7.70
2018-05-04T18:16:01.123Z,6.17
2018-05-04T18:18:29.409Z,4.57
2018-05-04T18:20:57.658Z,3.50
2018-05-04T18:23:27.036Z,3.33
2018-05-04T18:25:55.996Z,3.03
2018-05-04T18:28:25.481Z,2.93
2018-05-04T18:30:54.514Z,3.20
2018-05-04T18:33:23.562Z,2.60
2018-05-04T18:35:52.872Z,3.67
2018-05-04T18:38:22.058Z,3.73
2018-05-04T18:40:50.290Z,3.40
2018-05-04T18:43:19.830Z,3.30
2018-05-04T18:45:48.678Z,3.30
2018-05-04T18:48:17.068Z,3.27
2018-05-04T18:50:45.267Z,3.23
2018-05-04T18:53:13.561Z,3.23
2018-05-04T18:55:41.826Z,3.10
2018-05-04T18:58:10.091Z,3.40
2018-05-04T19:00:39.118Z,3.40
2018-05-04T19:03:13.089Z,3.67
2018-05-04T19:05:42.114Z,3.23
2018-05-04T19:08:10.434Z,3.77
2018-05-04T19:10:38.660Z,3.20
2018-05-04T19:13:07.376Z,3.87
2018-05-04T19:15:35.627Z,3.33
2018-05-04T19:18:03.895Z,3.13
2018-05-04T19:20:32.264Z,3.00
2018-05-04T19:23:00.423Z,3.23
2018-05-04T19:25:29.464Z,3.20
2018-05-04T19:27:57.714Z,3.63
2018-05-04T19:30:26.476Z,3.70
2018-05-04T19:32:54.764Z,3.60
2018-05-04T19:35:23.799Z,3.47
2018-05-04T19:37:52.059Z,3.87
2018-05-04T19:40:20.331Z,4.17
2018-05-04T19:42:48.584Z,3.40
2018-05-04T19:45:17.640Z,3.67
2018-05-04T19:47:45.875Z,3.33
2018-05-04T19:50:14.150Z,4.23
2018-05-04T19:52:42.437Z,3.90
2018-05-04T19:55:10.696Z,4.73
2018-05-04T19:57:38.955Z,3.20
2018-05-04T20:00:07.986Z,3.50
2018-05-04T20:02:36.234Z,3.17
2018-05-04T20:05:04.808Z,3.30
2018-05-04T20:07:33.841Z,3.50
2018-05-04T20:10:02.090Z,3.27
2018-05-04T20:12:30.368Z,3.20
2018-05-04T20:14:59.372Z,3.10
2018-05-04T20:17:27.849Z,3.20
2018-05-04T20:19:56.098Z,3.33
2018-05-04T20:22:25.112Z,3.00
2018-05-04T20:24:53.395Z,3.30
2018-05-04T20:27:21.675Z,2.70
2018-05-04T20:29:49.984Z,3.73
2018-05-04T20:32:18.247Z,3.20
2018-05-04T20:34:46.534Z,3.10
2018-05-04T20:37:14.783Z,2.73
2018-05-04T20:39:43.904Z,2.97
2018-05-04T20:42:12.990Z,3.73
2018-05-04T20:44:41.354Z,4.00
2018-05-04T20:47:09.622Z,3.70
2018-05-04T20:49:37.902Z,3.03
2018-05-04T20:52:06.263Z,3.40
2018-05-04T20:54:34.446Z,2.97
2018-05-04T20:57:02.734Z,3.10
2018-05-04T20:59:31.098Z,3.00
2018-05-04T21:02:00.095Z,3.00
2018-05-04T21:04:28.390Z,2.60
2018-05-04T21:06:56.634Z,2.90
2018-05-04T21:09:25.721Z,2.90
2018-05-04T21:11:53.935Z,2.70
2018-05-04T21:14:22.194Z,2.93
2018-05-04T21:16:50.448Z,3.07
2018-05-04T21:19:19.470Z,2.70
2018-05-04T21:21:47.992Z,2.90
2018-05-04T21:24:16.243Z,2.80
2018-05-04T21:26:44.532Z,2.67
2018-05-04T21:29:12.790Z,2.93
2018-05-04T21:31:41.072Z,3.30
2018-05-04T21:34:09.315Z,2.47
2018-05-04T21:36:37.587Z,3.03
2018-05-04T21:39:06.789Z,2.60
2018-05-04T21:41:34.924Z,3.00
2018-05-04T21:44:04.130Z,2.70
2018-05-04T21:46:32.407Z,3.10
2018-05-04T21:49:00.685Z,2.80
2018-05-04T21:51:28.966Z,2.33
2018-05-04T21:53:57.239Z,2.60
2018-05-04T21:56:25.539Z,2.57
2018-05-04T21:58:53.812Z,2.70
2018-05-04T22:01:22.834Z,2.73
2018-05-04T22:03:51.206Z,2.80
2018-05-04T22:06:19.473Z,2.57
2018-05-04T22:08:47.766Z,2.60
2018-05-04T22:11:16.010Z,2.50
2018-05-04T22:13:45.052Z,2.93
2018-05-04T22:16:13.322Z,2.43
2018-05-04T22:18:42.115Z,2.90
2018-05-04T22:21:10.509Z,2.70
2018-05-04T22:23:38.750Z,2.87
2018-05-04T22:26:06.997Z,3.07
2018-05-04T22:28:35.266Z,3.00
2018-05-04T22:31:03.618Z,3.20
2018-05-04T22:33:31.872Z,2.80
2018-05-04T22:36:00.143Z,2.40
2018-05-04T22:38:28.419Z,3.17
2018-05-04T22:40:57.468Z,2.90
2018-05-04T22:43:25.718Z,2.97
2018-05-04T22:45:54.028Z,2.60
2018-05-04T22:48:23.064Z,3.00
2018-05-04T22:50:51.327Z,2.87
2018-05-04T22:53:19.639Z,2.60
2018-05-04T22:55:48.020Z,2.53
2018-05-04T22:58:16.275Z,2.70
2018-05-04T23:00:44.518Z,2.67
2018-05-04T23:03:12.779Z,2.90
2018-05-04T23:05:41.803Z,2.43
2018-05-04T23:08:10.087Z,2.70
2018-05-04T23:10:39.027Z,2.93
2018-05-04T23:13:07.278Z,2.87
2018-05-04T23:15:35.522Z,2.70
2018-05-04T23:18:03.783Z,3.00
2018-05-04T23:20:32.045Z,3.17
2018-05-04T23:23:01.063Z,2.93
2018-05-04T23:25:29.334Z,2.97
2018-05-04T23:27:57.599Z,2.90
2018-05-04T23:30:26.638Z,3.13
2018-05-04T23:32:54.913Z,3.10
2018-05-04T23:35:23.161Z,3.30
2018-05-04T23:37:51.440Z,2.70
2018-05-04T23:40:19.705Z,2.83
2018-05-04T23:42:47.965Z,3.47
2018-05-04T23:45:16.992Z,2.70
2018-05-04T23:47:45.254Z,2.73
2018-05-04T23:50:13.537Z,3.33
2018-05-04T23:52:41.882Z,3.40
2018-05-04T23:55:10.117Z,3.43
2018-05-04T23:57:38.394Z,3.50
